sensor_id;sensor_type;location;lat;lon;timestamp;P1;durP1;ratioP1;P2;durP2;ratioP2
54627;SDS011;40525;55.926;21.066;2023-07-09T00:01:15;2.30;;;1.70;;
54627;SDS011;40525;55.926;21.066;2023-07-09T00:03:50;2.20;;;1.90;;
54627;SDS011;40525;55.926;21.066;2023-07-09T00:06:38;3.50;;;1.90;;
54627;SDS011;40525;55.926;21.066;2023-07-09T00:09:17;2.90;;;1.50;;
54627;SDS011;40525;55.926;21.066;2023-07-09T00:12:07;4.30;;;1.70;;
54627;SDS011;40525;55.926;21.066;2023-07-09T00:14:55;2.10;;;1.70;;
54627;SDS011;40525;55.926;21.066;2023-07-09T00:17:35;2.30;;;2.10;;
54627;SDS011;40525;55.926;21.066;2023-07-09T00:20:18;3.30;;;1.90;;
54627;SDS011;40525;55.926;21.066;2023-07-09T00:22:57;3.80;;;1.90;;
54627;SDS011;40525;55.926;21.066;2023-07-09T00:25:37;4.40;;;1.90;;
54627;SDS011;40525;55.926;21.066;2023-07-09T00:28:24;4.80;;;1.80;;
54627;SDS011;40525;55.926;21.066;2023-07-09T00:31:10;2.20;;;1.60;;
54627;SDS011;40525;55.926;21.066;2023-07-09T00:36:32;2.60;;;1.60;;
54627;SDS011;40525;55.926;21.066;2023-07-09T00:39:18;1.80;;;1.70;;
54627;SDS011;40525;55.926;21.066;2023-07-09T00:41:59;3.10;;;1.70;;
54627;SDS011;40525;55.926;21.066;2023-07-09T00:44:40;2.60;;;1.50;;
54627;SDS011;40525;55.926;21.066;2023-07-09T00:47:27;3.60;;;1.40;;
54627;SDS011;40525;55.926;21.066;2023-07-09T00:50:10;2.30;;;1.50;;
54627;SDS011;40525;55.926;21.066;2023-07-09T00:52:59;3.10;;;1.50;;
54627;SDS011;40525;55.926;21.066;2023-07-09T00:55:42;3.60;;;1.60;;
54627;SDS011;40525;55.926;21.066;2023-07-09T00:58:25;3.40;;;1.80;;
54627;SDS011;40525;55.926;21.066;2023-07-09T01:01:09;3.00;;;1.60;;
54627;SDS011;40525;55.926;21.066;2023-07-09T01:04:02;1.90;;;1.50;;
54627;SDS011;40525;55.926;21.066;2023-07-09T01:06:58;2.70;;;1.50;;
54627;SDS011;40525;55.926;21.066;2023-07-09T01:09:32;3.40;;;1.50;;
54627;SDS011;40525;55.926;21.066;2023-07-09T01:12:21;3.00;;;1.60;;
54627;SDS011;40525;55.926;21.066;2023-07-09T01:14:57;3.20;;;1.70;;
54627;SDS011;40525;55.926;21.066;2023-07-09T01:17:47;4.40;;;2.30;;
54627;SDS011;40525;55.926;21.066;2023-07-09T01:20:26;3.10;;;2.00;;
54627;SDS011;40525;55.926;21.066;2023-07-09T01:23:13;3.50;;;1.90;;
54627;SDS011;40525;55.926;21.066;2023-07-09T01:25:49;3.20;;;2.20;;
54627;SDS011;40525;55.926;21.066;2023-07-09T01:28:37;4.10;;;2.40;;
54627;SDS011;40525;55.926;21.066;2023-07-09T01:31:16;2.90;;;2.00;;
54627;SDS011;40525;55.926;21.066;2023-07-09T01:34:03;4.20;;;2.40;;
54627;SDS011;40525;55.926;21.066;2023-07-09T01:36:37;2.60;;;2.30;;
54627;SDS011;40525;55.926;21.066;2023-07-09T01:39:26;3.30;;;2.10;;
54627;SDS011;40525;55.926;21.066;2023-07-09T01:42:03;3.40;;;2.00;;
54627;SDS011;40525;55.926;21.066;2023-07-09T01:44:51;3.80;;;2.00;;
54627;SDS011;40525;55.926;21.066;2023-07-09T01:47:26;4.90;;;2.10;;
54627;SDS011;40525;55.926;21.066;2023-07-09T01:50:13;2.80;;;1.90;;
54627;SDS011;40525;55.926;21.066;2023-07-09T01:52:50;2.80;;;2.30;;
54627;SDS011;40525;55.926;21.066;2023-07-09T01:55:37;3.30;;;2.00;;
54627;SDS011;40525;55.926;21.066;2023-07-09T01:58:11;3.60;;;2.20;;
54627;SDS011;40525;55.926;21.066;2023-07-09T02:01:04;2.70;;;2.10;;
54627;SDS011;40525;55.926;21.066;2023-07-09T02:03:58;2.90;;;2.00;;
54627;SDS011;40525;55.926;21.066;2023-07-09T02:06:32;2.20;;;1.80;;
54627;SDS011;40525;55.926;21.066;2023-07-09T02:09:18;3.50;;;2.00;;
54627;SDS011;40525;55.926;21.066;2023-07-09T02:11:52;3.20;;;2.40;;
54627;SDS011;40525;55.926;21.066;2023-07-09T02:14:39;2.60;;;2.00;;
54627;SDS011;40525;55.926;21.066;2023-07-09T02:17:14;2.50;;;2.30;;
54627;SDS011;40525;55.926;21.066;2023-07-09T02:20:03;3.00;;;1.90;;
54627;SDS011;40525;55.926;21.066;2023-07-09T02:22:40;3.50;;;2.40;;
54627;SDS011;40525;55.926;21.066;2023-07-09T02:25:28;3.60;;;2.40;;
54627;SDS011;40525;55.926;21.066;2023-07-09T02:28:10;4.30;;;2.30;;
54627;SDS011;40525;55.926;21.066;2023-07-09T02:33:33;3.50;;;2.10;;
54627;SDS011;40525;55.926;21.066;2023-07-09T02:36:20;4.70;;;2.40;;
54627;SDS011;40525;55.926;21.066;2023-07-09T02:38:54;3.80;;;2.50;;
54627;SDS011;40525;55.926;21.066;2023-07-09T02:41:41;4.00;;;2.10;;
54627;SDS011;40525;55.926;21.066;2023-07-09T02:44:15;4.20;;;2.60;;
54627;SDS011;40525;55.926;21.066;2023-07-09T02:47:04;3.70;;;2.10;;
54627;SDS011;40525;55.926;21.066;2023-07-09T02:49:39;4.20;;;2.40;;
54627;SDS011;40525;55.926;21.066;2023-07-09T02:52:26;3.30;;;2.40;;
54627;SDS011;40525;55.926;21.066;2023-07-09T02:54:59;3.40;;;2.60;;
54627;SDS011;40525;55.926;21.066;2023-07-09T02:57:46;2.30;;;2.10;;
54627;SDS011;40525;55.926;21.066;2023-07-09T03:00:19;4.20;;;2.50;;
54627;SDS011;40525;55.926;21.066;2023-07-09T03:03:06;2.70;;;2.30;;
54627;SDS011;40525;55.926;21.066;2023-07-09T03:06:00;3.10;;;2.20;;
54627;SDS011;40525;55.926;21.066;2023-07-09T03:08:34;3.70;;;2.30;;
54627;SDS011;40525;55.926;21.066;2023-07-09T03:11:20;2.70;;;2.50;;
54627;SDS011;40525;55.926;21.066;2023-07-09T03:13:55;4.20;;;2.70;;
54627;SDS011;40525;55.926;21.066;2023-07-09T03:16:41;3.20;;;2.60;;
54627;SDS011;40525;55.926;21.066;2023-07-09T03:19:15;3.30;;;2.20;;
54627;SDS011;40525;55.926;21.066;2023-07-09T03:22:02;2.50;;;2.30;;
54627;SDS011;40525;55.926;21.066;2023-07-09T03:24:36;2.90;;;2.40;;
54627;SDS011;40525;55.926;21.066;2023-07-09T03:27:23;4.40;;;2.60;;
54627;SDS011;40525;55.926;21.066;2023-07-09T03:29:57;3.30;;;2.50;;
54627;SDS011;40525;55.926;21.066;2023-07-09T03:32:44;3.30;;;2.20;;
54627;SDS011;40525;55.926;21.066;2023-07-09T03:35:17;5.20;;;2.60;;
54627;SDS011;40525;55.926;21.066;2023-07-09T03:38:05;2.50;;;2.20;;
54627;SDS011;40525;55.926;21.066;2023-07-09T03:40:40;3.40;;;2.10;;
54627;SDS011;40525;55.926;21.066;2023-07-09T03:43:27;3.60;;;2.60;;
54627;SDS011;40525;55.926;21.066;2023-07-09T03:46:00;3.30;;;2.50;;
54627;SDS011;40525;55.926;21.066;2023-07-09T03:48:47;4.40;;;2.40;;
54627;SDS011;40525;55.926;21.066;2023-07-09T03:51:21;4.80;;;2.30;;
54627;SDS011;40525;55.926;21.066;2023-07-09T03:54:08;3.10;;;2.20;;
54627;SDS011;40525;55.926;21.066;2023-07-09T03:56:41;3.30;;;2.40;;
54627;SDS011;40525;55.926;21.066;2023-07-09T03:59:28;3.50;;;2.70;;
54627;SDS011;40525;55.926;21.066;2023-07-09T04:02:01;2.70;;;2.40;;
54627;SDS011;40525;55.926;21.066;2023-07-09T04:04:48;4.10;;;2.70;;
54627;SDS011;40525;55.926;21.066;2023-07-09T04:07:21;3.60;;;2.50;;
54627;SDS011;40525;55.926;21.066;2023-07-09T04:10:09;3.50;;;2.40;;
54627;SDS011;40525;55.926;21.066;2023-07-09T04:12:43;3.20;;;2.30;;
54627;SDS011;40525;55.926;21.066;2023-07-09T04:15:32;3.50;;;2.40;;
54627;SDS011;40525;55.926;21.066;2023-07-09T04:18:06;3.00;;;2.30;;
54627;SDS011;40525;55.926;21.066;2023-07-09T04:20:53;2.80;;;2.20;;
54627;SDS011;40525;55.926;21.066;2023-07-09T04:23:26;4.50;;;3.00;;
54627;SDS011;40525;55.926;21.066;2023-07-09T04:26:13;2.50;;;2.30;;
54627;SDS011;40525;55.926;21.066;2023-07-09T04:28:47;3.80;;;3.00;;
54627;SDS011;40525;55.926;21.066;2023-07-09T04:31:34;2.70;;;2.20;;
54627;SDS011;40525;55.926;21.066;2023-07-09T04:34:08;3.50;;;2.50;;
54627;SDS011;40525;55.926;21.066;2023-07-09T04:36:55;3.70;;;2.50;;
54627;SDS011;40525;55.926;21.066;2023-07-09T04:39:28;3.20;;;2.10;;
54627;SDS011;40525;55.926;21.066;2023-07-09T04:42:15;2.50;;;2.30;;
54627;SDS011;40525;55.926;21.066;2023-07-09T04:44:53;4.60;;;2.70;;
54627;SDS011;40525;55.926;21.066;2023-07-09T04:47:41;2.90;;;2.60;;
54627;SDS011;40525;55.926;21.066;2023-07-09T04:50:14;3.40;;;2.60;;
54627;SDS011;40525;55.926;21.066;2023-07-09T04:53:01;3.30;;;2.50;;
54627;SDS011;40525;55.926;21.066;2023-07-09T04:55:34;3.20;;;2.20;;
54627;SDS011;40525;55.926;21.066;2023-07-09T04:58:21;3.70;;;2.60;;
54627;SDS011;40525;55.926;21.066;2023-07-09T05:00:57;3.10;;;2.30;;
54627;SDS011;40525;55.926;21.066;2023-07-09T05:03:46;2.70;;;2.50;;
54627;SDS011;40525;55.926;21.066;2023-07-09T05:06:40;2.50;;;2.30;;
54627;SDS011;40525;55.926;21.066;2023-07-09T05:09:34;3.40;;;2.10;;
54627;SDS011;40525;55.926;21.066;2023-07-09T05:12:07;2.90;;;1.80;;
54627;SDS011;40525;55.926;21.066;2023-07-09T05:14:55;2.10;;;1.90;;
54627;SDS011;40525;55.926;21.066;2023-07-09T05:17:32;3.00;;;2.10;;
54627;SDS011;40525;55.926;21.066;2023-07-09T05:20:19;3.00;;;2.40;;
54627;SDS011;40525;55.926;21.066;2023-07-09T05:22:52;2.70;;;2.20;;
54627;SDS011;40525;55.926;21.066;2023-07-09T05:25:39;3.40;;;2.00;;
54627;SDS011;40525;55.926;21.066;2023-07-09T05:28:12;2.70;;;2.20;;
54627;SDS011;40525;55.926;21.066;2023-07-09T05:30:59;2.60;;;2.40;;
54627;SDS011;40525;55.926;21.066;2023-07-09T05:33:32;2.60;;;2.20;;
54627;SDS011;40525;55.926;21.066;2023-07-09T05:36:19;2.70;;;2.10;;
54627;SDS011;40525;55.926;21.066;2023-07-09T05:38:54;2.60;;;2.30;;
54627;SDS011;40525;55.926;21.066;2023-07-09T05:41:42;3.50;;;2.30;;
54627;SDS011;40525;55.926;21.066;2023-07-09T05:44:15;4.10;;;2.10;;
54627;SDS011;40525;55.926;21.066;2023-07-09T05:47:02;2.60;;;2.20;;
54627;SDS011;40525;55.926;21.066;2023-07-09T05:49:37;3.50;;;2.50;;
54627;SDS011;40525;55.926;21.066;2023-07-09T05:52:30;2.80;;;2.20;;
54627;SDS011;40525;55.926;21.066;2023-07-09T05:55:03;2.70;;;2.10;;
54627;SDS011;40525;55.926;21.066;2023-07-09T05:57:51;4.50;;;3.60;;
54627;SDS011;40525;55.926;21.066;2023-07-09T06:00:26;4.30;;;2.60;;
54627;SDS011;40525;55.926;21.066;2023-07-09T06:03:14;2.70;;;2.30;;
54627;SDS011;40525;55.926;21.066;2023-07-09T06:05:48;3.80;;;1.90;;
54627;SDS011;40525;55.926;21.066;2023-07-09T06:08:36;2.90;;;2.30;;
54627;SDS011;40525;55.926;21.066;2023-07-09T06:11:10;2.90;;;2.30;;
54627;SDS011;40525;55.926;21.066;2023-07-09T06:13:57;3.50;;;2.00;;
54627;SDS011;40525;55.926;21.066;2023-07-09T06:16:32;2.00;;;1.80;;
54627;SDS011;40525;55.926;21.066;2023-07-09T06:19:19;2.60;;;2.20;;
54627;SDS011;40525;55.926;21.066;2023-07-09T06:21:54;2.10;;;1.80;;
54627;SDS011;40525;55.926;21.066;2023-07-09T06:24:44;2.20;;;2.00;;
54627;SDS011;40525;55.926;21.066;2023-07-09T06:27:19;2.00;;;1.80;;
54627;SDS011;40525;55.926;21.066;2023-07-09T06:30:06;2.70;;;2.30;;
54627;SDS011;40525;55.926;21.066;2023-07-09T06:32:40;2.50;;;2.00;;
54627;SDS011;40525;55.926;21.066;2023-07-09T06:35:28;2.90;;;1.60;;
54627;SDS011;40525;55.926;21.066;2023-07-09T06:38:07;2.40;;;1.70;;
54627;SDS011;40525;55.926;21.066;2023-07-09T06:40:55;3.00;;;2.40;;
54627;SDS011;40525;55.926;21.066;2023-07-09T06:43:30;1.80;;;1.40;;
54627;SDS011;40525;55.926;21.066;2023-07-09T06:46:19;3.70;;;1.90;;
54627;SDS011;40525;55.926;21.066;2023-07-09T06:48:53;2.00;;;1.50;;
54627;SDS011;40525;55.926;21.066;2023-07-09T06:51:39;2.70;;;1.80;;
54627;SDS011;40525;55.926;21.066;2023-07-09T06:54:13;2.00;;;1.80;;
54627;SDS011;40525;55.926;21.066;2023-07-09T06:56:59;2.40;;;1.80;;
54627;SDS011;40525;55.926;21.066;2023-07-09T06:59:33;3.70;;;1.90;;
54627;SDS011;40525;55.926;21.066;2023-07-09T07:02:20;3.20;;;2.10;;
54627;SDS011;40525;55.926;21.066;2023-07-09T07:04:54;3.00;;;1.80;;
54627;SDS011;40525;55.926;21.066;2023-07-09T07:07:40;1.90;;;1.60;;
54627;SDS011;40525;55.926;21.066;2023-07-09T07:10:14;2.50;;;1.80;;
54627;SDS011;40525;55.926;21.066;2023-07-09T07:13:01;1.90;;;1.50;;
54627;SDS011;40525;55.926;21.066;2023-07-09T07:15:39;2.00;;;1.60;;
54627;SDS011;40525;55.926;21.066;2023-07-09T07:18:26;2.50;;;1.50;;
54627;SDS011;40525;55.926;21.066;2023-07-09T07:21:01;2.40;;;1.80;;
54627;SDS011;40525;55.926;21.066;2023-07-09T07:23:47;1.70;;;1.50;;
54627;SDS011;40525;55.926;21.066;2023-07-09T07:26:21;2.80;;;2.00;;
54627;SDS011;40525;55.926;21.066;2023-07-09T07:29:08;4.00;;;1.90;;
54627;SDS011;40525;55.926;21.066;2023-07-09T07:31:42;3.60;;;1.80;;
54627;SDS011;40525;55.926;21.066;2023-07-09T07:34:30;3.60;;;1.60;;
54627;SDS011;40525;55.926;21.066;2023-07-09T07:37:04;3.10;;;2.10;;
54627;SDS011;40525;55.926;21.066;2023-07-09T07:39:52;1.70;;;1.60;;
54627;SDS011;40525;55.926;21.066;2023-07-09T07:42:27;3.00;;;2.10;;
54627;SDS011;40525;55.926;21.066;2023-07-09T07:45:14;2.50;;;1.90;;
54627;SDS011;40525;55.926;21.066;2023-07-09T07:47:48;2.90;;;1.80;;
54627;SDS011;40525;55.926;21.066;2023-07-09T07:50:35;2.50;;;1.80;;
54627;SDS011;40525;55.926;21.066;2023-07-09T07:53:09;3.30;;;2.00;;
54627;SDS011;40525;55.926;21.066;2023-07-09T07:55:57;2.30;;;1.70;;
54627;SDS011;40525;55.926;21.066;2023-07-09T07:58:34;2.90;;;2.00;;
54627;SDS011;40525;55.926;21.066;2023-07-09T08:01:20;2.90;;;1.60;;
54627;SDS011;40525;55.926;21.066;2023-07-09T08:03:59;2.80;;;1.80;;
54627;SDS011;40525;55.926;21.066;2023-07-09T08:06:47;3.20;;;2.00;;
54627;SDS011;40525;55.926;21.066;2023-07-09T08:09:22;2.70;;;1.90;;
54627;SDS011;40525;55.926;21.066;2023-07-09T08:12:09;1.70;;;1.60;;
54627;SDS011;40525;55.926;21.066;2023-07-09T08:14:45;2.80;;;2.50;;
54627;SDS011;40525;55.926;21.066;2023-07-09T08:17:32;4.20;;;1.90;;
54627;SDS011;40525;55.926;21.066;2023-07-09T08:20:07;3.00;;;1.80;;
54627;SDS011;40525;55.926;21.066;2023-07-09T08:22:55;2.30;;;1.50;;
54627;SDS011;40525;55.926;21.066;2023-07-09T08:25:29;3.50;;;1.90;;
54627;SDS011;40525;55.926;21.066;2023-07-09T08:28:16;1.60;;;1.40;;
54627;SDS011;40525;55.926;21.066;2023-07-09T08:30:54;2.10;;;1.80;;
54627;SDS011;40525;55.926;21.066;2023-07-09T08:33:42;4.60;;;2.30;;
54627;SDS011;40525;55.926;21.066;2023-07-09T08:36:16;4.30;;;1.70;;
54627;SDS011;40525;55.926;21.066;2023-07-09T08:39:03;1.90;;;1.40;;
54627;SDS011;40525;55.926;21.066;2023-07-09T08:41:40;3.60;;;1.90;;
54627;SDS011;40525;55.926;21.066;2023-07-09T08:53:59;2.60;;;1.40;;
54627;SDS011;40525;55.926;21.066;2023-07-09T08:56:46;3.10;;;1.60;;
54627;SDS011;40525;55.926;21.066;2023-07-09T08:59:20;1.30;;;1.20;;
54627;SDS011;40525;55.926;21.066;2023-07-09T09:02:14;1.90;;;1.40;;
54627;SDS011;40525;55.926;21.066;2023-07-09T09:04:56;3.50;;;1.50;;
54627;SDS011;40525;55.926;21.066;2023-07-09T09:07:44;2.50;;;1.40;;
54627;SDS011;40525;55.926;21.066;2023-07-09T09:10:29;1.80;;;1.20;;
54627;SDS011;40525;55.926;21.066;2023-07-09T09:13:16;3.60;;;1.80;;
54627;SDS011;40525;55.926;21.066;2023-07-09T09:16:02;2.30;;;1.50;;
54627;SDS011;40525;55.926;21.066;2023-07-09T09:18:47;1.90;;;1.30;;
54627;SDS011;40525;55.926;21.066;2023-07-09T09:21:31;3.90;;;1.70;;
54627;SDS011;40525;55.926;21.066;2023-07-09T09:24:16;1.30;;;1.20;;
54627;SDS011;40525;55.926;21.066;2023-07-09T09:27:01;2.20;;;1.50;;
54627;SDS011;40525;55.926;21.066;2023-07-09T09:29:42;2.20;;;1.20;;
54627;SDS011;40525;55.926;21.066;2023-07-09T09:32:25;2.00;;;1.40;;
54627;SDS011;40525;55.926;21.066;2023-07-09T09:35:17;1.90;;;1.40;;
54627;SDS011;40525;55.926;21.066;2023-07-09T09:37:58;2.60;;;1.60;;
54627;SDS011;40525;55.926;21.066;2023-07-09T09:40:40;2.40;;;1.30;;
54627;SDS011;40525;55.926;21.066;2023-07-09T09:43:21;4.00;;;1.40;;
54627;SDS011;40525;55.926;21.066;2023-07-09T09:46:05;2.70;;;1.70;;
54627;SDS011;40525;55.926;21.066;2023-07-09T09:48:47;1.90;;;1.30;;
54627;SDS011;40525;55.926;21.066;2023-07-09T09:51:29;2.20;;;1.30;;
54627;SDS011;40525;55.926;21.066;2023-07-09T09:54:20;2.20;;;1.40;;
54627;SDS011;40525;55.926;21.066;2023-07-09T09:57:13;1.60;;;1.40;;
54627;SDS011;40525;55.926;21.066;2023-07-09T09:59:57;1.40;;;1.20;;
54627;SDS011;40525;55.926;21.066;2023-07-09T10:02:41;2.70;;;1.40;;
54627;SDS011;40525;55.926;21.066;2023-07-09T10:05:32;3.90;;;1.40;;
54627;SDS011;40525;55.926;21.066;2023-07-09T10:17:36;2.20;;;1.40;;
54627;SDS011;40525;55.926;21.066;2023-07-09T10:20:31;2.60;;;1.70;;
54627;SDS011;40525;55.926;21.066;2023-07-09T10:26:24;2.30;;;1.60;;
54627;SDS011;40525;55.926;21.066;2023-07-09T10:32:29;3.30;;;1.60;;
54627;SDS011;40525;55.926;21.066;2023-07-09T10:35:16;3.50;;;1.50;;
54627;SDS011;40525;55.926;21.066;2023-07-09T10:41:09;2.50;;;1.60;;
54627;SDS011;40525;55.926;21.066;2023-07-09T10:44:10;1.80;;;1.40;;
54627;SDS011;40525;55.926;21.066;2023-07-09T10:50:12;3.40;;;1.50;;
54627;SDS011;40525;55.926;21.066;2023-07-09T10:53:01;2.20;;;1.60;;
54627;SDS011;40525;55.926;21.066;2023-07-09T10:55:53;2.20;;;1.30;;
54627;SDS011;40525;55.926;21.066;2023-07-09T11:01:45;2.50;;;1.70;;
54627;SDS011;40525;55.926;21.066;2023-07-09T11:04:40;1.60;;;1.30;;
54627;SDS011;40525;55.926;21.066;2023-07-09T11:13:56;4.50;;;1.60;;
54627;SDS011;40525;55.926;21.066;2023-07-09T11:16:41;2.40;;;1.50;;
54627;SDS011;40525;55.926;21.066;2023-07-09T11:19:29;1.80;;;1.40;;
54627;SDS011;40525;55.926;21.066;2023-07-09T11:22:04;1.50;;;1.30;;
54627;SDS011;40525;55.926;21.066;2023-07-09T11:27:51;2.70;;;1.40;;
54627;SDS011;40525;55.926;21.066;2023-07-09T11:33:28;1.40;;;1.10;;
54627;SDS011;40525;55.926;21.066;2023-07-09T11:36:26;2.10;;;1.40;;
54627;SDS011;40525;55.926;21.066;2023-07-09T11:39:02;1.40;;;1.20;;
54627;SDS011;40525;55.926;21.066;2023-07-09T11:41:49;1.20;;;0.90;;
54627;SDS011;40525;55.926;21.066;2023-07-09T11:44:24;2.40;;;1.10;;
54627;SDS011;40525;55.926;21.066;2023-07-09T11:47:24;1.40;;;1.10;;
54627;SDS011;40525;55.926;21.066;2023-07-09T11:50:24;1.70;;;1.00;;
54627;SDS011;40525;55.926;21.066;2023-07-09T11:55:56;1.70;;;1.20;;
54627;SDS011;40525;55.926;21.066;2023-07-09T11:58:36;2.50;;;1.10;;
54627;SDS011;40525;55.926;21.066;2023-07-09T12:01:34;1.40;;;1.10;;
54627;SDS011;40525;55.926;21.066;2023-07-09T12:04:30;1.60;;;1.20;;
54627;SDS011;40525;55.926;21.066;2023-07-09T12:07:14;2.70;;;1.50;;
54627;SDS011;40525;55.926;21.066;2023-07-09T12:09:57;2.00;;;1.20;;
54627;SDS011;40525;55.926;21.066;2023-07-09T12:12:37;2.30;;;1.30;;
54627;SDS011;40525;55.926;21.066;2023-07-09T12:15:24;1.90;;;1.40;;
54627;SDS011;40525;55.926;21.066;2023-07-09T12:18:13;2.60;;;1.30;;
54627;SDS011;40525;55.926;21.066;2023-07-09T12:21:02;1.80;;;1.20;;
54627;SDS011;40525;55.926;21.066;2023-07-09T12:23:35;2.00;;;1.20;;
54627;SDS011;40525;55.926;21.066;2023-07-09T12:26:22;2.10;;;1.30;;
54627;SDS011;40525;55.926;21.066;2023-07-09T12:28:57;1.90;;;1.30;;
54627;SDS011;40525;55.926;21.066;2023-07-09T12:31:45;1.50;;;1.30;;
54627;SDS011;40525;55.926;21.066;2023-07-09T12:34:19;2.70;;;1.30;;
54627;SDS011;40525;55.926;21.066;2023-07-09T12:37:08;2.10;;;1.50;;
54627;SDS011;40525;55.926;21.066;2023-07-09T12:39:46;1.80;;;1.40;;
54627;SDS011;40525;55.926;21.066;2023-07-09T12:42:35;1.40;;;1.20;;
54627;SDS011;40525;55.926;21.066;2023-07-09T12:45:14;1.80;;;1.20;;
54627;SDS011;40525;55.926;21.066;2023-07-09T12:50:36;1.30;;;1.10;;
54627;SDS011;40525;55.926;21.066;2023-07-09T12:53:23;2.70;;;1.60;;
54627;SDS011;40525;55.926;21.066;2023-07-09T12:56:01;2.70;;;1.50;;
54627;SDS011;40525;55.926;21.066;2023-07-09T12:58:49;2.90;;;1.40;;
54627;SDS011;40525;55.926;21.066;2023-07-09T13:01:22;2.10;;;1.40;;
54627;SDS011;40525;55.926;21.066;2023-07-09T13:04:11;1.60;;;1.30;;
54627;SDS011;40525;55.926;21.066;2023-07-09T13:10:25;2.50;;;1.50;;
54627;SDS011;40525;55.926;21.066;2023-07-09T13:13:01;2.10;;;1.60;;
54627;SDS011;40525;55.926;21.066;2023-07-09T13:16:00;3.30;;;1.50;;
54627;SDS011;40525;55.926;21.066;2023-07-09T13:18:35;3.50;;;1.40;;
54627;SDS011;40525;55.926;21.066;2023-07-09T13:21:22;3.30;;;1.80;;
54627;SDS011;40525;55.926;21.066;2023-07-09T13:24:05;2.90;;;1.60;;
54627;SDS011;40525;55.926;21.066;2023-07-09T13:26:56;3.90;;;1.60;;
54627;SDS011;40525;55.926;21.066;2023-07-09T13:29:39;2.30;;;1.80;;
54627;SDS011;40525;55.926;21.066;2023-07-09T13:32:19;1.60;;;1.40;;
54627;SDS011;40525;55.926;21.066;2023-07-09T13:35:01;2.70;;;1.90;;
54627;SDS011;40525;55.926;21.066;2023-07-09T13:37:40;2.50;;;1.60;;
54627;SDS011;40525;55.926;21.066;2023-07-09T13:40:23;2.20;;;1.70;;
54627;SDS011;40525;55.926;21.066;2023-07-09T13:43:04;5.10;;;1.60;;
54627;SDS011;40525;55.926;21.066;2023-07-09T13:45:50;2.60;;;1.60;;
54627;SDS011;40525;55.926;21.066;2023-07-09T13:48:30;2.50;;;1.50;;
54627;SDS011;40525;55.926;21.066;2023-07-09T13:51:18;3.00;;;1.80;;
54627;SDS011;40525;55.926;21.066;2023-07-09T13:54:00;3.00;;;1.50;;
54627;SDS011;40525;55.926;21.066;2023-07-09T13:56:43;1.30;;;1.20;;
54627;SDS011;40525;55.926;21.066;2023-07-09T13:59:24;1.90;;;1.70;;
54627;SDS011;40525;55.926;21.066;2023-07-09T14:02:19;2.80;;;2.00;;
54627;SDS011;40525;55.926;21.066;2023-07-09T14:05:06;2.00;;;1.80;;
54627;SDS011;40525;55.926;21.066;2023-07-09T14:07:48;2.90;;;1.50;;
54627;SDS011;40525;55.926;21.066;2023-07-09T14:10:27;2.70;;;1.50;;
54627;SDS011;40525;55.926;21.066;2023-07-09T14:13:18;1.70;;;1.40;;
54627;SDS011;40525;55.926;21.066;2023-07-09T14:16:05;2.50;;;1.80;;
54627;SDS011;40525;55.926;21.066;2023-07-09T14:18:46;2.40;;;1.40;;
54627;SDS011;40525;55.926;21.066;2023-07-09T14:21:26;5.70;;;1.90;;
54627;SDS011;40525;55.926;21.066;2023-07-09T14:24:23;2.40;;;1.80;;
54627;SDS011;40525;55.926;21.066;2023-07-09T14:27:17;2.60;;;1.70;;
54627;SDS011;40525;55.926;21.066;2023-07-09T14:29:53;2.40;;;1.40;;
54627;SDS011;40525;55.926;21.066;2023-07-09T14:32:41;3.40;;;1.80;;
54627;SDS011;40525;55.926;21.066;2023-07-09T14:35:18;1.80;;;1.60;;
54627;SDS011;40525;55.926;21.066;2023-07-09T14:38:29;1.90;;;1.50;;
54627;SDS011;40525;55.926;21.066;2023-07-09T14:41:04;2.00;;;1.50;;
54627;SDS011;40525;55.926;21.066;2023-07-09T14:44:02;2.80;;;1.70;;
54627;SDS011;40525;55.926;21.066;2023-07-09T14:46:49;2.50;;;1.60;;
54627;SDS011;40525;55.926;21.066;2023-07-09T14:49:37;2.90;;;1.70;;
54627;SDS011;40525;55.926;21.066;2023-07-09T14:52:12;3.40;;;2.00;;
54627;SDS011;40525;55.926;21.066;2023-07-09T14:55:02;2.90;;;1.70;;
54627;SDS011;40525;55.926;21.066;2023-07-09T14:57:43;3.70;;;1.80;;
54627;SDS011;40525;55.926;21.066;2023-07-09T15:00:23;2.80;;;1.50;;
54627;SDS011;40525;55.926;21.066;2023-07-09T15:03:04;2.50;;;1.70;;
54627;SDS011;40525;55.926;21.066;2023-07-09T15:05:44;2.30;;;1.50;;
54627;SDS011;40525;55.926;21.066;2023-07-09T15:08:26;2.30;;;1.50;;
54627;SDS011;40525;55.926;21.066;2023-07-09T15:11:07;2.30;;;1.60;;
54627;SDS011;40525;55.926;21.066;2023-07-09T15:13:49;2.50;;;1.70;;
54627;SDS011;40525;55.926;21.066;2023-07-09T15:16:29;3.40;;;1.70;;
54627;SDS011;40525;55.926;21.066;2023-07-09T15:19:13;3.10;;;2.00;;
54627;SDS011;40525;55.926;21.066;2023-07-09T15:21:54;2.30;;;1.60;;
54627;SDS011;40525;55.926;21.066;2023-07-09T15:24:34;2.80;;;1.60;;
54627;SDS011;40525;55.926;21.066;2023-07-09T15:27:15;1.60;;;1.40;;
54627;SDS011;40525;55.926;21.066;2023-07-09T15:29:56;2.20;;;2.00;;
54627;SDS011;40525;55.926;21.066;2023-07-09T15:32:35;3.20;;;1.80;;
54627;SDS011;40525;55.926;21.066;2023-07-09T15:35:16;1.70;;;1.60;;
54627;SDS011;40525;55.926;21.066;2023-07-09T15:38:00;5.50;;;2.00;;
54627;SDS011;40525;55.926;21.066;2023-07-09T15:40:44;2.80;;;1.50;;
54627;SDS011;40525;55.926;21.066;2023-07-09T15:43:25;2.20;;;1.70;;
54627;SDS011;40525;55.926;21.066;2023-07-09T15:46:08;3.50;;;1.80;;
54627;SDS011;40525;55.926;21.066;2023-07-09T15:48:56;3.10;;;1.80;;
54627;SDS011;40525;55.926;21.066;2023-07-09T15:51:36;1.70;;;1.60;;
54627;SDS011;40525;55.926;21.066;2023-07-09T15:54:17;3.40;;;1.60;;
54627;SDS011;40525;55.926;21.066;2023-07-09T15:56:59;2.50;;;1.70;;
54627;SDS011;40525;55.926;21.066;2023-07-09T15:59:40;3.10;;;1.60;;
54627;SDS011;40525;55.926;21.066;2023-07-09T16:02:22;2.60;;;1.60;;
54627;SDS011;40525;55.926;21.066;2023-07-09T16:05:04;2.00;;;1.60;;
54627;SDS011;40525;55.926;21.066;2023-07-09T16:08:03;4.20;;;1.80;;
54627;SDS011;40525;55.926;21.066;2023-07-09T16:10:43;1.90;;;1.50;;
54627;SDS011;40525;55.926;21.066;2023-07-09T16:13:24;3.30;;;1.70;;
54627;SDS011;40525;55.926;21.066;2023-07-09T16:16:08;4.50;;;1.80;;
54627;SDS011;40525;55.926;21.066;2023-07-09T16:18:54;4.20;;;2.00;;
54627;SDS011;40525;55.926;21.066;2023-07-09T16:24:18;2.50;;;1.70;;
54627;SDS011;40525;55.926;21.066;2023-07-09T16:27:05;2.30;;;1.70;;
54627;SDS011;40525;55.926;21.066;2023-07-09T16:29:46;2.50;;;1.40;;
54627;SDS011;40525;55.926;21.066;2023-07-09T16:32:26;2.20;;;1.40;;
54627;SDS011;40525;55.926;21.066;2023-07-09T16:35:13;2.80;;;1.50;;
54627;SDS011;40525;55.926;21.066;2023-07-09T16:37:56;2.20;;;1.40;;
54627;SDS011;40525;55.926;21.066;2023-07-09T16:40:36;1.90;;;1.30;;
54627;SDS011;40525;55.926;21.066;2023-07-09T16:43:18;1.80;;;1.60;;
54627;SDS011;40525;55.926;21.066;2023-07-09T16:46:01;2.00;;;1.60;;
54627;SDS011;40525;55.926;21.066;2023-07-09T16:48:58;1.70;;;1.60;;
54627;SDS011;40525;55.926;21.066;2023-07-09T16:51:38;2.60;;;1.90;;
54627;SDS011;40525;55.926;21.066;2023-07-09T16:54:19;2.50;;;1.70;;
54627;SDS011;40525;55.926;21.066;2023-07-09T16:57:00;1.40;;;1.20;;
54627;SDS011;40525;55.926;21.066;2023-07-09T16:59:41;1.40;;;1.30;;
54627;SDS011;40525;55.926;21.066;2023-07-09T17:02:27;3.30;;;1.60;;
54627;SDS011;40525;55.926;21.066;2023-07-09T17:05:09;2.20;;;1.40;;
54627;SDS011;40525;55.926;21.066;2023-07-09T17:07:49;2.30;;;1.80;;
54627;SDS011;40525;55.926;21.066;2023-07-09T17:10:30;1.90;;;1.50;;